Time;durP1;ratioP1;P1;durP2;ratioP2;P2;SDS_P1;SDS_P2;PMS_P1;PMS_P2;Temp;Humidity;BMP_temperature;BMP_pressure;BME280_temperature;BME280_humidity;BME280_pressure;Samples;Min_cycle;Max_cycle;Signal;HPM_P1;HPM_P2
2022/10/10 00:01:25;;;;;;;6.78;4.18;;;;;;;14.32;100.00;98953.03;5091908;28;20031;-59
2022/10/10 00:03:51;;;;;;;6.32;4.03;;;;;;;14.35;100.00;98961.38;5080956;28;20076;-58
2022/10/10 00:06:16;;;;;;;8.35;4.78;;;;;;;14.44;100.00;98962.22;5096518;28;20023;-58
2022/10/10 00:08:43;;;;;;;8.52;4.63;;;;;;;14.39;100.00;98956.66;5077160;28;20039;-58
2022/10/10 00:11:09;;;;;;;6.88;4.70;;;;;;;14.39;100.00;98952.22;5082899;28;20032;-56
2022/10/10 00:13:35;;;;;;;7.45;4.75;;;;;;;14.35;100.00;98948.31;5083667;27;20038;-58
2022/10/10 00:16:01;;;;;;;7.95;4.72;;;;;;;14.34;100.00;98961.53;5084032;28;20028;-58
2022/10/10 00:18:27;;;;;;;7.25;4.75;;;;;;;14.31;100.00;98956.63;5080982;28;20055;-58
2022/10/10 00:20:52;;;;;;;6.90;4.57;;;;;;;14.32;100.00;98953.03;5080904;28;20035;-58
2022/10/10 00:23:19;;;;;;;6.65;4.38;;;;;;;14.28;100.00;98951.72;5080732;28;20043;-58
2022/10/10 00:25:45;;;;;;;6.97;4.43;;;;;;;14.26;100.00;98949.28;5093385;28;20637;-58
2022/10/10 00:28:11;;;;;;;6.28;4.35;;;;;;;14.32;100.00;98955.66;5098840;28;20037;-58
2022/10/10 00:30:37;;;;;;;6.93;4.25;;;;;;;14.37;100.00;98953.38;5074595;28;20031;-58
2022/10/10 00:33:03;;;;;;;8.60;4.80;;;;;;;14.33;100.00;98958.13;5099489;28;20041;-59
2022/10/10 00:35:28;;;;;;;6.78;4.60;;;;;;;14.40;100.00;98959.13;5075577;28;20481;-58
2022/10/10 00:37:54;;;;;;;8.75;4.40;;;;;;;14.35;100.00;98957.97;5073989;28;20032;-58
2022/10/10 00:40:20;;;;;;;9.02;4.68;;;;;;;14.33;100.00;98952.03;5091683;27;20439;-58
2022/10/10 00:42:45;;;;;;;7.13;4.10;;;;;;;14.29;100.00;98951.56;5073960;28;20039;-58
2022/10/10 00:45:30;;;;;;;6.15;3.95;;;;;;;14.32;100.00;98951.25;5079767;28;20871;-58
2022/10/10 00:48:03;;;;;;;6.30;4.20;;;;;;;14.38;100.00;98955.84;5087025;28;20073;-59
2022/10/10 00:50:31;;;;;;;7.07;4.22;;;;;;;14.26;100.00;98941.44;5076343;28;21292;-58
2022/10/10 00:52:57;;;;;;;6.80;3.88;;;;;;;14.07;100.00;98913.75;5081009;28;20039;-58
2022/10/10 00:55:23;;;;;;;6.30;4.15;;;;;;;14.31;100.00;98930.47;5094290;28;20027;-58
2022/10/10 00:57:49;;;;;;;7.90;4.45;;;;;;;14.31;100.00;98931.31;5078770;28;20077;-58
2022/10/10 01:00:15;;;;;;;6.55;4.00;;;;;;;14.38;100.00;98934.91;5084984;28;20076;-60
2022/10/10 01:02:40;;;;;;;5.97;3.67;;;;;;;14.30;100.00;98936.69;5096919;28;20594;-58
2022/10/10 01:05:06;;;;;;;6.05;4.15;;;;;;;14.23;100.00;98934.69;5071185;28;20115;-58
2022/10/10 01:07:32;;;;;;;7.03;4.35;;;;;;;14.29;100.00;98933.28;5078920;28;20039;-58
2022/10/10 01:10:02;;;;;;;5.95;4.10;;;;;;;14.14;100.00;98927.00;5094236;28;20040;-58
2022/10/10 01:12:49;;;;;;;7.25;3.90;;;;;;;14.07;100.00;98931.22;5084580;28;20039;-58
2022/10/10 01:15:27;;;;;;;6.25;3.90;;;;;;;14.10;100.00;98930.94;5086870;28;20044;-58
2022/10/10 01:18:07;;;;;;;7.95;4.22;;;;;;;14.10;100.00;98928.31;5103426;28;20480;-59
2022/10/10 01:20:55;;;;;;;6.20;4.20;;;;;;;14.06;100.00;98922.59;5099794;27;20144;-57
2022/10/10 01:23:26;;;;;;;6.28;3.92;;;;;;;14.15;100.00;98923.44;5089710;28;20046;-58
2022/10/10 01:26:29;;;;;;;6.00;3.60;;;;;;;14.08;100.00;98925.03;5091877;28;20034;-58
2022/10/10 01:29:07;;;;;;;8.10;4.55;;;;;;;13.92;100.00;98886.59;5099291;28;20056;-58
2022/10/10 01:31:38;;;;;;;9.77;4.22;;;;;;;14.13;100.00;98914.94;5090947;28;20062;-58
2022/10/10 01:34:22;;;;;;;5.85;3.88;;;;;;;14.16;100.00;98910.16;5079205;28;20051;-58
2022/10/10 01:37:03;;;;;;;7.93;4.30;;;;;;;14.20;100.00;98914.13;5098903;27;20032;-58
2022/10/10 01:39:38;;;;;;;7.40;3.92;;;;;;;14.18;100.00;98908.25;5082772;28;20035;-58
2022/10/10 01:42:31;;;;;;;7.07;3.83;;;;;;;13.98;100.00;98884.16;5080278;28;20114;-60
2022/10/10 01:44:57;;;;;;;7.40;3.92;;;;;;;14.17;100.00;98903.97;5079819;28;20692;-59
2022/10/10 01:47:22;;;;;;;6.68;3.70;;;;;;;14.10;100.00;98881.25;5099836;28;20056;-56
2022/10/10 01:49:54;;;;;;;6.10;3.70;;;;;;;14.14;100.00;98898.25;5081930;28;20067;-57
2022/10/10 01:52:28;;;;;;;6.30;3.90;;;;;;;14.08;100.00;98901.50;5096044;28;20036;-57
2022/10/10 01:55:23;;;;;;;6.20;3.90;;;;;;;14.09;100.00;98901.34;5083725;28;20031;-56
2022/10/10 01:57:58;;;;;;;7.30;3.92;;;;;;;14.02;100.00;98895.94;5085708;28;20572;-57
2022/10/10 02:00:23;;;;;;;6.25;3.75;;;;;;;14.03;100.00;98896.75;5101283;27;20221;-56
2022/10/10 02:02:56;;;;;;;6.93;4.15;;;;;;;13.75;100.00;98849.97;5082958;28;20735;-57
2022/10/10 02:06:10;;;;;;;6.43;4.00;;;;;;;14.01;100.00;98894.28;5085156;28;20661;-56
2022/10/10 02:09:03;;;;;;;6.72;3.72;;;;;;;14.02;100.00;98893.31;5012913;28;20208;-57
2022/10/10 02:11:32;;;;;;;6.05;3.78;;;;;;;13.91;100.00;98874.50;5074995;28;20087;-57
2022/10/10 02:14:08;;;;;;;6.30;4.05;;;;;;;14.00;100.00;98883.97;5084877;27;20117;-57
2022/10/10 02:16:37;;;;;;;6.38;4.00;;;;;;;14.05;100.00;98879.09;5094412;28;20386;-57
2022/10/10 02:19:06;;;;;;;7.33;4.03;;;;;;;13.90;100.00;98865.84;5084902;28;20036;-57
2022/10/10 02:21:31;;;;;;;10.48;4.50;;;;;;;13.98;100.00;98878.09;5084010;28;20215;-57
2022/10/10 02:24:01;;;;;;;9.07;4.18;;;;;;;13.98;100.00;98878.09;5080692;28;20093;-56
2022/10/10 02:26:27;;;;;;;7.15;4.10;;;;;;;14.03;100.00;98873.22;5088964;28;20031;-56
2022/10/10 02:28:56;;;;;;;9.95;4.30;;;;;;;14.05;100.00;98876.47;5099656;27;20028;-57
2022/10/10 02:32:01;;;;;;;8.23;4.63;;;;;;;13.99;100.00;98870.09;5071987;28;20039;-57
2022/10/10 02:34:32;;;;;;;7.38;4.78;;;;;;;13.97;100.00;98871.25;5073939;28;20046;-57
2022/10/10 02:37:01;;;;;;;6.70;4.75;;;;;;;14.00;100.00;98860.47;5090605;27;20035;-57
2022/10/10 02:39:29;;;;;;;8.17;4.40;;;;;;;13.97;100.00;98861.59;5098145;28;20023;-57
2022/10/10 02:41:54;;;;;;;9.48;4.80;;;;;;;13.67;100.00;98818.56;5083501;28;20031;-57
2022/10/10 02:44:21;;;;;;;7.88;4.78;;;;;;;13.92;100.00;98861.25;5110792;27;20052;-57
2022/10/10 02:46:47;;;;;;;8.88;4.80;;;;;;;13.96;100.00;98861.75;5097241;28;20028;-57
2022/10/10 02:49:12;;;;;;;7.30;5.00;;;;;;;13.99;100.00;98866.69;5082631;28;20361;-57
2022/10/10 02:51:38;;;;;;;6.78;4.85;;;;;;;13.73;100.00;98814.53;5090047;28;20773;-56
2022/10/10 02:54:06;;;;;;;7.97;5.20;;;;;;;13.97;100.00;98861.59;5079697;28;20526;-58
2022/10/10 02:56:32;;;;;;;9.25;5.30;;;;;;;14.01;100.00;98860.31;5079267;28;20044;-57
2022/10/10 02:58:57;;;;;;;6.60;4.72;;;;;;;14.08;100.00;98857.06;5096735;28;20039;-57
2022/10/10 03:01:23;;;;;;;7.10;4.60;;;;;;;14.07;100.00;98858.03;5079985;28;20261;-58
2022/10/10 03:03:48;;;;;;;9.40;5.10;;;;;;;14.07;100.00;98871.09;5096135;28;20107;-57
2022/10/10 03:06:14;;;;;;;7.32;5.00;;;;;;;14.02;100.00;98869.78;5083315;28;20031;-58
2022/10/10 03:08:39;;;;;;;7.45;4.90;;;;;;;13.52;100.00;98797.47;5078151;28;20058;-58
2022/10/10 03:11:05;;;;;;;7.30;5.05;;;;;;;13.99;100.00;98856.22;5081253;28;20035;-58
2022/10/10 03:13:31;;;;;;;7.60;5.20;;;;;;;14.04;100.00;98862.59;5097259;28;20748;-58
2022/10/10 03:15:56;;;;;;;7.63;5.32;;;;;;;14.05;100.00;98855.56;5092921;28;20024;-57
2022/10/10 03:18:22;;;;;;;9.25;5.50;;;;;;;14.05;100.00;98858.19;5080390;28;20434;-58
2022/10/10 03:20:52;;;;;;;8.60;5.47;;;;;;;14.09;100.00;98866.53;5078869;28;20020;-57
2022/10/10 03:23:18;;;;;;;8.43;5.43;;;;;;;14.08;100.00;98864.91;5099597;28;20106;-57
2022/10/10 03:25:44;;;;;;;9.63;5.93;;;;;;;14.08;100.00;98863.09;5098894;27;20192;-57
2022/10/10 03:28:10;;;;;;;7.75;5.30;;;;;;;14.03;100.00;98857.53;5078761;28;20027;-58
2022/10/10 03:30:36;;;;;;;9.00;5.55;;;;;;;14.02;100.00;98848.06;5079984;28;20032;-58
2022/10/10 03:33:01;;;;;;;7.38;5.13;;;;;;;14.12;100.00;98858.38;5051574;28;20042;-58
2022/10/10 03:35:27;;;;;;;8.70;5.53;;;;;;;14.06;100.00;98865.06;5084534;28;20032;-58
2022/10/10 03:37:52;;;;;;;8.93;5.30;;;;;;;14.01;100.00;98860.31;5081795;28;20031;-57
2022/10/10 03:40:18;;;;;;;9.15;5.40;;;;;;;14.04;100.00;98860.00;5104483;27;20019;-57
2022/10/10 03:42:43;;;;;;;7.78;5.38;;;;;;;14.06;100.00;98862.44;5090288;28;20667;-58
2022/10/10 03:45:09;;;;;;;7.68;5.00;;;;;;;14.09;100.00;98856.91;5095818;28;20484;-58
2022/10/10 03:47:34;;;;;;;7.65;5.30;;;;;;;14.13;100.00;98857.41;5080056;28;20046;-57
2022/10/10 03:50:00;;;;;;;8.27;5.07;;;;;;;14.10;100.00;98855.09;5080027;28;20155;-58
2022/10/10 03:52:26;;;;;;;7.15;4.80;;;;;;;14.12;100.00;98856.56;5114047;27;20200;-57
2022/10/10 03:54:51;;;;;;;8.38;5.03;;;;;;;14.10;100.00;98850.69;5094753;27;20059;-58
2022/10/10 03:57:17;;;;;;;7.45;4.95;;;;;;;14.08;100.00;98850.03;5079788;28;20371;-58
2022/10/10 03:59:42;;;;;;;7.63;4.70;;;;;;;14.08;100.00;98851.84;5082638;28;20048;-58
2022/10/10 04:02:08;;;;;;;8.55;5.28;;;;;;;14.14;100.00;98848.56;5080440;28;20040;-57
2022/10/10 04:04:33;;;;;;;7.18;4.53;;;;;;;14.14;100.00;98854.59;5088677;28;20035;-57
2022/10/10 04:06:59;;;;;;;7.88;4.80;;;;;;;14.08;100.00;98855.25;5082162;28;20035;-57
2022/10/10 04:09:24;;;;;;;8.57;5.20;;;;;;;14.18;100.00;98857.72;5075511;28;20036;-57
2022/10/10 04:11:50;;;;;;;9.02;4.95;;;;;;;14.21;100.00;98865.25;5080417;28;20043;-57
2022/10/10 04:14:15;;;;;;;8.75;5.00;;;;;;;14.12;100.00;98859.19;5077041;28;20036;-58
2022/10/10 04:16:40;;;;;;;8.45;5.20;;;;;;;14.09;100.00;98850.84;5079256;28;20043;-58
2022/10/10 04:19:06;;;;;;;7.30;4.95;;;;;;;14.15;100.00;98856.25;5077582;28;20392;-58
2022/10/10 04:21:31;;;;;;;8.05;5.03;;;;;;;14.16;100.00;98847.41;5095831;28;20538;-57
2022/10/10 04:23:57;;;;;;;7.75;4.97;;;;;;;14.23;100.00;98860.66;5101330;27;20110;-58
2022/10/10 04:26:22;;;;;;;9.63;5.07;;;;;;;14.16;100.00;98865.72;5075971;28;20027;-58
2022/10/10 04:28:48;;;;;;;7.88;4.97;;;;;;;14.19;100.00;98862.78;5077310;28;20030;-57
2022/10/10 04:31:13;;;;;;;8.23;5.18;;;;;;;14.21;100.00;98862.63;5079712;28;20492;-58
2022/10/10 04:33:39;;;;;;;7.20;4.60;;;;;;;14.16;100.00;98859.66;5065333;28;20039;-57
2022/10/10 04:36:04;;;;;;;7.70;4.95;;;;;;;14.19;100.00;98861.97;5079753;27;20078;-58
2022/10/10 04:38:30;;;;;;;8.65;4.93;;;;;;;13.86;100.00;98820.09;5081443;28;20637;-58
2022/10/10 04:40:55;;;;;;;7.88;5.55;;;;;;;14.17;100.00;98856.09;5091481;28;20027;-57
2022/10/10 04:43:21;;;;;;;8.30;5.07;;;;;;;14.14;100.00;98856.41;5080146;28;20036;-58
2022/10/10 04:45:46;;;;;;;8.43;4.93;;;;;;;14.20;100.00;98863.59;5098486;28;20035;-58
2022/10/10 04:48:11;;;;;;;7.18;5.03;;;;;;;14.20;100.00;98853.13;5079517;28;20035;-58
2022/10/10 04:50:37;;;;;;;6.88;5.05;;;;;;;14.02;100.00;98820.13;5095269;28;20169;-56
2022/10/10 04:53:02;;;;;;;8.38;5.50;;;;;;;14.12;100.00;98853.13;5098875;28;20031;-58
2022/10/10 04:55:28;;;;;;;9.77;5.65;;;;;;;14.08;100.00;98854.44;5079489;28;20031;-57
2022/10/10 04:57:53;;;;;;;7.45;4.95;;;;;;;14.09;100.00;98854.28;5090758;28;20100;-57
2022/10/10 05:00:19;;;;;;;9.15;5.93;;;;;;;13.97;100.00;98818.97;5080479;28;20117;-57
2022/10/10 05:02:44;;;;;;;7.03;4.95;;;;;;;14.13;100.00;98858.22;5077689;28;20118;-57
2022/10/10 05:05:10;;;;;;;7.97;5.32;;;;;;;14.18;100.00;98855.94;5080470;28;20697;-58
2022/10/10 05:07:35;;;;;;;7.90;5.22;;;;;;;14.11;100.00;98859.34;5095196;28;20115;-58
2022/10/10 05:10:01;;;;;;;8.95;5.57;;;;;;;14.18;100.00;98860.31;5079804;28;20024;-58
2022/10/10 05:12:26;;;;;;;7.40;5.18;;;;;;;14.11;100.00;98852.34;5081994;28;20043;-57
2022/10/10 05:14:52;;;;;;;11.15;5.57;;;;;;;14.13;100.00;98855.59;5096559;28;20031;-58
2022/10/10 05:17:18;;;;;;;11.20;5.75;;;;;;;14.18;100.00;98868.16;5077914;28;20027;-57
2022/10/10 05:19:43;;;;;;;8.52;6.13;;;;;;;14.13;100.00;98857.41;5080228;28;20027;-58
2022/10/10 05:22:09;;;;;;;9.50;5.85;;;;;;;14.06;100.00;98849.38;5075234;28;20401;-58
2022/10/10 05:24:34;;;;;;;9.80;5.63;;;;;;;13.92;100.00;98821.25;5074335;28;20035;-58
2022/10/10 05:27:00;;;;;;;8.20;5.50;;;;;;;14.13;100.00;98855.59;5074155;28;20039;-57
2022/10/10 05:29:25;;;;;;;9.35;6.05;;;;;;;14.16;100.00;98870.94;5071343;28;20043;-58
2022/10/10 05:31:51;;;;;;;8.55;5.65;;;;;;;14.12;100.00;98855.75;5092658;28;20068;-58
2022/10/10 05:34:16;;;;;;;8.68;5.95;;;;;;;14.20;100.00;98866.22;5067468;28;20563;-59
2022/10/10 05:36:42;;;;;;;8.50;5.95;;;;;;;14.11;100.00;98860.16;5089238;28;20039;-57
2022/10/10 05:39:08;;;;;;;8.57;6.05;;;;;;;14.15;100.00;98869.31;5080882;28;20032;-57
2022/10/10 05:41:33;;;;;;;8.18;6.00;;;;;;;14.14;100.00;98874.72;5055486;28;20618;-58
2022/10/10 05:43:59;;;;;;;8.43;5.90;;;;;;;14.16;100.00;98868.31;5030143;28;20048;-57
2022/10/10 05:46:26;;;;;;;8.98;6.00;;;;;;;14.14;100.00;98866.88;5096992;28;20032;-58
2022/10/10 05:48:52;;;;;;;10.23;6.10;;;;;;;14.21;100.00;98873.09;5082304;28;20028;-57
2022/10/10 05:51:18;;;;;;;8.82;6.00;;;;;;;14.22;100.00;98874.75;5082780;28;20024;-58
2022/10/10 05:53:43;;;;;;;8.38;5.80;;;;;;;14.04;100.00;98846.91;5090160;28;20034;-58
2022/10/10 05:56:10;;;;;;;7.75;5.80;;;;;;;14.15;100.00;98868.50;5084630;28;20027;-58
2022/10/10 05:58:36;;;;;;;9.30;5.85;;;;;;;14.23;100.00;98871.94;5084833;28;20498;-58
2022/10/10 06:01:06;;;;;;;9.90;6.10;;;;;;;14.01;100.00;98830.72;5045565;28;20044;-58
2022/10/10 06:03:31;;;;;;;14.77;7.07;;;;;;;14.21;100.00;98867.84;5077100;28;20470;-58
2022/10/10 06:05:57;;;;;;;8.10;5.88;;;;;;;14.25;100.00;98870.97;5084211;28;20028;-58
2022/10/10 06:08:24;;;;;;;11.10;6.47;;;;;;;14.17;100.00;98874.41;5091332;27;20051;-58
2022/10/10 06:10:49;;;;;;;10.98;6.65;;;;;;;14.26;100.00;98876.03;5099471;27;20035;-58
2022/10/10 06:13:16;;;;;;;11.68;7.18;;;;;;;14.28;100.00;98884.53;5101460;27;20016;-58
2022/10/10 06:15:42;;;;;;;11.88;6.28;;;;;;;14.26;100.00;98875.22;5078860;28;20200;-57
2022/10/10 06:18:08;;;;;;;9.57;6.22;;;;;;;14.22;100.00;98885.19;5102702;27;20085;-58
2022/10/10 06:20:38;;;;;;;8.52;6.40;;;;;;;14.19;100.00;98881.09;5038634;27;20319;-57
2022/10/10 06:23:05;;;;;;;10.80;6.85;;;;;;;14.25;100.00;98878.81;5081513;28;20501;-58
2022/10/10 06:25:32;;;;;;;11.18;6.50;;;;;;;14.01;100.00;98844.63;5091278;28;20477;-58
2022/10/10 06:27:57;;;;;;;8.65;6.50;;;;;;;14.23;100.00;98887.63;5079394;28;20032;-58
2022/10/10 06:30:23;;;;;;;9.68;6.60;;;;;;;14.02;100.00;98840.22;5075716;28;21191;-58
2022/10/10 06:32:48;;;;;;;10.05;6.53;;;;;;;14.34;100.00;98880.47;5082111;28;20019;-58
2022/10/10 06:35:14;;;;;;;9.15;6.35;;;;;;;14.30;100.00;98882.56;5099530;28;20039;-58
2022/10/10 06:37:39;;;;;;;9.68;6.82;;;;;;;14.39;100.00;98892.06;5074600;28;20035;-58
2022/10/10 06:40:05;;;;;;;10.48;6.90;;;;;;;14.37;100.00;98878.34;5024329;28;20501;-58
2022/10/10 06:42:31;;;;;;;8.13;6.38;;;;;;;14.35;100.00;98880.31;5084151;28;20054;-59
2022/10/10 06:44:57;;;;;;;9.98;6.93;;;;;;;14.38;100.00;98889.59;5083279;28;20040;-59
2022/10/10 06:47:22;;;;;;;10.60;7.05;;;;;;;14.34;100.00;98878.66;5098896;28;20035;-59
2022/10/10 06:49:48;;;;;;;9.82;6.63;;;;;;;14.40;100.00;98885.03;5082923;28;20087;-58
2022/10/10 06:52:13;;;;;;;8.68;6.13;;;;;;;14.35;100.00;98887.34;5084119;28;20032;-58
2022/10/10 06:54:39;;;;;;;9.20;6.47;;;;;;;14.35;100.00;98887.34;5076677;28;20035;-58
2022/10/10 06:57:04;;;;;;;10.95;6.68;;;;;;;14.47;100.00;98895.66;5102551;28;20036;-58
2022/10/10 06:59:30;;;;;;;10.02;6.80;;;;;;;14.48;100.00;98897.31;5051231;27;20039;-58
2022/10/10 07:01:55;;;;;;;9.93;6.53;;;;;;;14.48;100.00;98900.75;5077659;28;20517;-59
2022/10/10 07:04:21;;;;;;;9.40;6.50;;;;;;;14.55;100.00;98904.34;5102065;27;20031;-58
2022/10/10 07:06:46;;;;;;;9.27;6.30;;;;;;;14.48;100.00;98903.38;5087801;28;20034;-57
2022/10/10 07:09:12;;;;;;;9.50;6.63;;;;;;;14.27;100.00;98874.22;5080570;28;20656;-58
2022/10/10 07:11:38;;;;;;;15.48;7.43;;;;;;;14.51;100.00;98912.66;5096826;27;20038;-58
2022/10/10 07:14:03;;;;;;;10.20;6.88;;;;;;;14.53;100.00;98922.00;5097994;27;20042;-58
2022/10/10 07:16:29;;;;;;;9.75;6.50;;;;;;;14.56;100.00;98923.47;5113238;27;20349;-58
2022/10/10 07:18:54;;;;;;;9.48;6.22;;;;;;;14.54;100.00;98925.44;5088531;27;20054;-57
2022/10/10 07:21:20;;;;;;;9.63;6.50;;;;;;;14.65;100.00;98930.38;5093984;27;20568;-58
2022/10/10 07:23:45;;;;;;;9.02;6.28;;;;;;;14.39;100.00;98904.34;5095319;28;20437;-57
2022/10/10 07:26:12;;;;;;;8.65;6.15;;;;;;;14.52;100.00;98932.63;5088477;28;20347;-58
2022/10/10 07:28:38;;;;;;;8.52;6.10;;;;;;;14.46;100.00;98935.91;5085889;28;20066;-58
2022/10/10 07:31:06;;;;;;;11.57;6.13;;;;;;;14.51;100.00;98944.06;5092165;27;20573;-57
2022/10/10 07:33:40;;;;;;;9.07;6.10;;;;;;;14.54;100.00;98952.41;5094734;28;20120;-56
2022/10/10 07:36:06;;;;;;;9.02;6.05;;;;;;;14.66;100.00;98952.97;5093745;28;20042;-57
2022/10/10 07:38:32;;;;;;;8.82;6.15;;;;;;;14.61;100.00;98952.63;5091786;28;20394;-57
2022/10/10 07:40:58;;;;;;;9.50;6.20;;;;;;;14.63;100.00;98952.47;5078486;28;20508;-57
2022/10/10 07:43:23;;;;;;;10.38;6.07;;;;;;;14.53;100.00;98934.25;5087892;27;20028;-58
2022/10/10 07:45:48;;;;;;;9.30;5.97;;;;;;;14.69;100.00;98963.09;5085753;28;20028;-58
2022/10/10 07:48:14;;;;;;;11.80;5.97;;;;;;;14.73;100.00;98961.81;5089960;28;20053;-58
2022/10/10 07:50:43;;;;;;;8.93;5.95;;;;;;;14.77;100.00;98970.97;5082025;28;20550;-58
2022/10/10 07:53:09;;;;;;;13.27;6.15;;;;;;;14.78;100.00;98970.00;5086338;27;20027;-58
2022/10/10 07:55:39;;;;;;;9.85;6.05;;;;;;;14.82;100.00;98972.25;5098589;27;20112;-58
2022/10/10 07:58:05;;;;;;;;;;;;;;;14.92;100.00;98975.56;5080367;28;20493;-57
2022/10/10 08:00:30;;;;;;;9.32;5.82;;;;;;;14.89;100.00;98976.69;5082370;28;19919;-58
2022/10/10 08:02:57;;;;;;;8.65;5.93;;;;;;;14.94;100.00;98970.97;5082880;28;20039;-58
2022/10/10 08:05:22;;;;;;;9.57;6.30;;;;;;;14.95;100.00;98975.22;5074088;28;20062;-58
2022/10/10 08:07:48;;;;;;;8.07;5.65;;;;;;;14.93;100.00;98977.16;5092805;28;20122;-58
2022/10/10 08:10:14;;;;;;;9.55;5.65;;;;;;;14.99;100.00;98981.78;5095915;28;20059;-57
2022/10/10 08:12:39;;;;;;;11.02;6.22;;;;;;;14.97;100.00;98979.31;5079551;28;20040;-57
2022/10/10 08:15:05;;;;;;;9.32;5.97;;;;;;;14.99;100.00;98979.16;5095083;28;20031;-58
2022/10/10 08:17:31;;;;;;;10.35;6.25;;;;;;;15.02;100.00;98973.56;5089095;27;20501;-58
2022/10/10 08:19:56;;;;;;;7.80;5.35;;;;;;;15.09;100.00;98984.22;5064642;28;20024;-58
2022/10/10 08:22:22;;;;;;;9.15;6.20;;;;;;;15.15;100.00;98992.25;5095051;27;20703;-58
2022/10/10 08:24:47;;;;;;;11.55;5.90;;;;;;;15.17;100.00;98985.03;5080806;28;20030;-58
2022/10/10 08:27:16;;;;;;;7.75;5.70;;;;;;;15.16;100.00;98986.00;5088389;28;20043;-58
2022/10/10 08:29:42;;;;;;;9.45;5.78;;;;;;;15.20;100.00;98978.63;5096258;28;20019;-57
2022/10/10 08:32:07;;;;;;;9.13;5.45;;;;;;;15.18;100.00;98991.09;5072554;28;20035;-57
2022/10/10 08:34:33;;;;;;;9.32;5.85;;;;;;;15.15;100.00;98987.00;5085610;28;20043;-58
2022/10/10 08:36:58;;;;;;;10.68;6.07;;;;;;;15.17;100.00;98984.22;5099627;28;20140;-56
2022/10/10 08:39:25;;;;;;;8.35;5.55;;;;;;;15.15;100.00;98991.41;5099169;28;20044;-58
2022/10/10 08:41:54;;;;;;;21.02;7.93;;;;;;;15.14;100.00;98976.69;5095452;28;20064;-57
2022/10/10 08:44:31;;;;;;;8.48;5.50;;;;;;;14.91;100.00;98961.66;5093552;28;20036;-58
2022/10/10 08:47:08;;;;;;;9.10;5.78;;;;;;;15.05;100.00;98991.56;5087221;28;20145;-57
2022/10/10 08:49:44;;;;;;;9.45;6.57;;;;;;;15.02;100.00;98991.91;5092034;28;20047;-58
2022/10/10 08:52:13;;;;;;;10.00;5.95;;;;;;;15.10;100.00;98989.28;5100228;28;20023;-57
2022/10/10 08:54:40;;;;;;;8.43;5.93;;;;;;;15.13;100.00;98983.72;5097342;28;21074;-57
2022/10/10 08:57:14;;;;;;;9.73;6.43;;;;;;;14.94;100.00;98956.06;5095222;28;20039;-58
2022/10/10 08:59:41;;;;;;;9.30;5.85;;;;;;;15.04;100.00;98983.88;5080892;28;20080;-58
2022/10/10 09:02:28;;;;;;;13.57;7.97;;;;;;;15.04;100.00;98989.97;5083470;28;20028;-57
2022/10/10 09:04:55;;;;;;;11.18;7.43;;;;;;;14.94;100.00;98977.00;5075500;28;20136;-57
2022/10/10 09:07:52;;;;;;;12.45;8.10;;;;;;;15.02;100.00;98986.66;5097926;28;20580;-57
2022/10/10 09:10:43;;;;;;;11.10;8.40;;;;;;;15.12;100.00;98986.50;5095109;28;20402;-57
2022/10/10 09:13:29;;;;;;;10.15;6.55;;;;;;;15.07;100.00;98988.81;5101348;28;20423;-57
2022/10/10 09:16:33;;;;;;;11.98;6.93;;;;;;;15.06;100.00;98985.38;5099859;28;20101;-58
2022/10/10 09:19:28;;;;;;;11.23;6.95;;;;;;;15.00;100.00;98986.00;5065928;28;20036;-57
2022/10/10 09:22:00;;;;;;;9.50;6.43;;;;;;;15.05;100.00;98981.09;5089988;28;20128;-59
2022/10/10 09:24:33;;;;;;;10.57;6.80;;;;;;;15.02;100.00;98976.19;5076431;28;20023;-59
2022/10/10 09:27:04;;;;;;;10.65;6.53;;;;;;;14.90;100.00;98940.88;5098946;28;20105;-57
2022/10/10 09:29:45;;;;;;;10.60;7.18;;;;;;;15.09;100.00;98973.75;5076313;28;20500;-57
2022/10/10 09:32:19;;;;;;;11.00;6.50;;;;;;;15.10;100.00;98980.63;5104011;27;20027;-57
2022/10/10 09:34:52;;;;;;;9.00;6.28;;;;;;;15.09;100.00;98977.16;5095464;28;20088;-57
2022/10/10 09:37:20;;;;;;;8.90;6.20;;;;;;;15.16;100.00;98967.66;5083459;28;20026;-58
2022/10/10 09:40:00;;;;;;;10.38;6.65;;;;;;;14.99;100.00;98939.88;5102643;28;20342;-58
2022/10/10 09:42:33;;;;;;;10.77;6.68;;;;;;;14.95;100.00;98939.38;5092909;27;20050;-58
2022/10/10 09:44:59;;;;;;;9.57;6.30;;;;;;;15.08;100.00;98974.75;5093243;28;20114;-57
2022/10/10 09:47:25;;;;;;;12.40;6.20;;;;;;;14.95;100.00;98939.38;5080001;28;20035;-57
2022/10/10 09:49:50;;;;;;;10.75;5.78;;;;;;;14.97;100.00;98944.47;5092694;28;20564;-57
2022/10/10 09:52:27;;;;;;;9.38;6.50;;;;;;;15.14;100.00;98992.41;5082241;28;20042;-57
2022/10/10 09:55:04;;;;;;;10.48;6.18;;;;;;;15.22;100.00;98981.91;5095903;27;20149;-58
2022/10/10 09:57:37;;;;;;;11.85;6.43;;;;;;;15.19;100.00;98988.31;5097658;28;20065;-57
2022/10/10 10:00:33;;;;;;;9.23;6.50;;;;;;;15.21;100.00;98987.34;5086772;28;20139;-58
2022/10/10 10:03:05;;;;;;;13.20;7.07;;;;;;;15.14;100.00;98981.94;5104496;27;20113;-58
2022/10/10 10:05:31;;;;;;;9.77;6.70;;;;;;;15.21;100.00;98975.03;5092693;28;20523;-58
2022/10/10 10:07:57;;;;;;;11.98;6.32;;;;;;;15.26;100.00;98987.63;5092590;28;20067;-58
2022/10/10 10:10:25;;;;;;;10.95;6.10;;;;;;;15.28;100.00;98977.84;5076447;28;20070;-57
2022/10/10 10:12:51;;;;;;;11.95;6.85;;;;;;;15.22;100.00;98973.22;5100102;27;20043;-58
2022/10/10 10:15:28;;;;;;;9.07;6.18;;;;;;;15.28;100.00;98981.25;5078416;28;20118;-59
2022/10/10 10:18:15;;;;;;;10.85;6.97;;;;;;;15.32;100.00;98977.31;5081586;28;20153;-56
2022/10/10 10:20:47;;;;;;;10.65;6.10;;;;;;;15.32;100.00;98971.28;5092328;28;20127;-59
2022/10/10 10:23:31;;;;;;;11.23;6.18;;;;;;;15.43;100.00;98976.16;5114231;27;20763;-58
2022/10/10 10:26:24;;;;;;;11.45;6.80;;;;;;;15.37;100.00;98975.03;5078458;28;20032;-58
2022/10/10 10:28:51;;;;;;;11.35;7.60;;;;;;;15.43;100.00;98970.91;5071214;28;20023;-59
2022/10/10 10:31:47;;;;;;;11.68;7.13;;;;;;;15.52;100.00;98976.97;5089866;28;20028;-58
2022/10/10 10:34:27;;;;;;;10.40;6.07;;;;;;;15.56;100.00;98978.25;5093394;28;20105;-57
2022/10/10 10:37:12;;;;;;;10.57;6.03;;;;;;;15.61;100.00;98972.53;5104542;27;20020;-57
2022/10/10 10:39:42;;;;;;;12.30;7.00;;;;;;;15.62;100.00;98979.38;5082877;28;20020;-58
2022/10/10 10:42:28;;;;;;;12.20;6.95;;;;;;;15.55;100.00;98973.97;5095968;27;20038;-58
2022/10/10 10:45:19;;;;;;;11.10;6.80;;;;;;;15.51;100.00;98967.44;5097431;27;21036;-58
2022/10/10 10:48:00;;;;;;;9.88;7.32;;;;;;;15.61;100.00;98977.75;5098724;27;20034;-58
2022/10/10 10:50:47;;;;;;;10.05;6.45;;;;;;;15.37;100.00;98942.78;5095428;27;20508;-57
2022/10/10 10:53:43;;;;;;;10.32;5.95;;;;;;;15.37;100.00;98948.00;5092259;28;20035;-58
2022/10/10 10:56:18;;;;;;;10.90;7.40;;;;;;;15.54;100.00;98967.13;5092336;27;20123;-57
2022/10/10 10:59:08;;;;;;;9.00;6.10;;;;;;;15.62;100.00;98976.75;5089503;28;20097;-58
2022/10/10 11:01:51;;;;;;;8.82;6.15;;;;;;;15.53;100.00;98976.81;5096053;28;20031;-57
2022/10/10 11:04:32;;;;;;;9.48;6.38;;;;;;;15.57;100.00;98975.47;5095514;28;20023;-58
2022/10/10 11:07:15;;;;;;;10.30;6.55;;;;;;;15.60;100.00;98968.25;5097925;28;20032;-58
2022/10/10 11:10:10;;;;;;;11.20;7.28;;;;;;;15.61;100.00;98981.19;5092791;28;20027;-58
2022/10/10 11:12:41;;;;;;;10.57;6.65;;;;;;;15.67;100.00;98975.25;5097613;27;20047;-57
2022/10/10 11:15:19;;;;;;;10.95;6.75;;;;;;;15.68;100.00;98963.81;5108693;27;20031;-58
2022/10/10 11:18:08;;;;;;;9.35;6.30;;;;;;;15.67;100.00;98958.72;5096204;28;20424;-57
2022/10/10 11:20:46;;;;;;;9.17;6.43;;;;;;;15.75;100.00;98967.44;5088908;27;21133;-58
2022/10/10 11:23:22;;;;;;;11.50;6.15;;;;;;;15.73;100.00;98964.13;5098247;27;20305;-58
2022/10/10 11:26:01;;;;;;;9.07;7.05;;;;;;;15.38;100.00;98889.38;5100393;28;20023;-59
2022/10/10 11:28:33;;;;;;;10.52;6.88;;;;;;;15.81;100.00;98944.94;5079175;27;20027;-58
2022/10/10 11:31:12;;;;;;;10.57;7.28;;;;;;;15.78;100.00;98942.66;5104346;27;20039;-56
2022/10/10 11:33:43;;;;;;;9.52;6.15;;;;;;;15.77;100.00;98948.91;5081169;28;20028;-58
2022/10/10 11:36:17;;;;;;;9.25;7.13;;;;;;;15.55;100.00;98906.69;5096452;27;20036;-57
2022/10/10 11:38:48;;;;;;;9.20;6.25;;;;;;;15.85;100.00;98946.25;5097785;28;20020;-58